sensor_id;sensor_type;location;lat;lon;timestamp;pressure;altitude;pressure_sealevel;temperature;humidity
60355;BME280;46198;51.464;-0.066;2023-10-19T00:02:00;98504.00;;;14.70;100.00
60355;BME280;46198;51.464;-0.066;2023-10-19T00:04:27;98504.91;;;14.65;100.00
60355;BME280;46198;51.464;-0.066;2023-10-19T00:06:58;98517.84;;;14.59;100.00
60355;BME280;46198;51.464;-0.066;2023-10-19T00:09:26;98524.53;;;14.53;100.00
60355;BME280;46198;51.464;-0.066;2023-10-19T00:12:03;98530.50;;;14.55;100.00
60355;BME280;46198;51.464;-0.066;2023-10-19T00:14:34;98532.16;;;14.51;100.00
60355;BME280;46198;51.464;-0.066;2023-10-19T00:17:02;98528.72;;;14.46;100.00
60355;BME280;46198;51.464;-0.066;2023-10-19T00:19:33;98552.69;;;14.35;100.00
60355;BME280;46198;51.464;-0.066;2023-10-19T00:22:07;98541.34;;;14.28;100.00
60355;BME280;46198;51.464;-0.066;2023-10-19T00:24:43;98540.94;;;14.21;100.00
60355;BME280;46198;51.464;-0.066;2023-10-19T00:27:10;98545.69;;;14.29;100.00
60355;BME280;46198;51.464;-0.066;2023-10-19T00:29:45;98544.78;;;14.19;100.00
60355;BME280;46198;51.464;-0.066;2023-10-19T00:32:17;98560.84;;;14.21;100.00
60355;BME280;46198;51.464;-0.066;2023-10-19T00:34:46;98549.19;;;14.15;100.00
60355;BME280;46198;51.464;-0.066;2023-10-19T00:37:19;98541.09;;;14.10;100.00
60355;BME280;46198;51.464;-0.066;2023-10-19T00:39:53;98542.28;;;14.04;100.00
60355;BME280;46198;51.464;-0.066;2023-10-19T00:42:23;98537.84;;;14.08;100.00
60355;BME280;46198;51.464;-0.066;2023-10-19T00:44:58;98544.44;;;14.07;100.00
60355;BME280;46198;51.464;-0.066;2023-10-19T00:47:31;98542.13;;;14.14;100.00
60355;BME280;46198;51.464;-0.066;2023-10-19T00:50:08;98541.63;;;14.12;100.00
60355;BME280;46198;51.464;-0.066;2023-10-19T00:52:42;98542.34;;;14.18;100.00
60355;BME280;46198;51.464;-0.066;2023-10-19T00:55:18;98538.47;;;14.19;100.00
60355;BME280;46198;51.464;-0.066;2023-10-19T00:57:53;98557.38;;;14.15;100.00
60355;BME280;46198;51.464;-0.066;2023-10-19T01:00:26;98554.38;;;14.17;100.00
60355;BME280;46198;51.464;-0.066;2023-10-19T01:03:01;98536.28;;;14.21;100.00
60355;BME280;46198;51.464;-0.066;2023-10-19T01:05:32;98547.78;;;14.18;100.00
60355;BME280;46198;51.464;-0.066;2023-10-19T01:08:04;98548.00;;;14.22;100.00
60355;BME280;46198;51.464;-0.066;2023-10-19T01:10:51;98551.84;;;14.21;100.00
60355;BME280;46198;51.464;-0.066;2023-10-19T01:13:20;98556.41;;;14.25;100.00
60355;BME280;46198;51.464;-0.066;2023-10-19T01:15:55;98555.91;;;14.37;100.00
60355;BME280;46198;51.464;-0.066;2023-10-19T01:18:25;98559.78;;;14.36;100.00
60355;BME280;46198;51.464;-0.066;2023-10-19T01:20:56;98558.56;;;14.42;100.00
60355;BME280;46198;51.464;-0.066;2023-10-19T01:23:30;98563.59;;;14.35;100.00
60355;BME280;46198;51.464;-0.066;2023-10-19T01:25:58;98547.81;;;14.32;100.00
60355;BME280;46198;51.464;-0.066;2023-10-19T01:28:36;98546.00;;;14.41;100.00
60355;BME280;46198;51.464;-0.066;2023-10-19T01:31:15;98542.19;;;14.42;100.00
60355;BME280;46198;51.464;-0.066;2023-10-19T01:33:50;98533.69;;;14.44;100.00
60355;BME280;46198;51.464;-0.066;2023-10-19T01:36:21;98539.13;;;14.44;100.00
60355;BME280;46198;51.464;-0.066;2023-10-19T01:38:54;98547.66;;;14.42;100.00
60355;BME280;46198;51.464;-0.066;2023-10-19T01:41:23;98549.78;;;14.45;100.00
60355;BME280;46198;51.464;-0.066;2023-10-19T01:43:53;98548.66;;;14.46;100.00
60355;BME280;46198;51.464;-0.066;2023-10-19T01:46:23;98548.34;;;14.48;100.00
60355;BME280;46198;51.464;-0.066;2023-10-19T01:48:53;98553.75;;;14.53;100.00
60355;BME280;46198;51.464;-0.066;2023-10-19T01:51:24;98553.16;;;14.56;100.00
60355;BME280;46198;51.464;-0.066;2023-10-19T01:53:53;98552.53;;;14.59;100.00
60355;BME280;46198;51.464;-0.066;2023-10-19T01:56:22;98547.38;;;14.57;100.00
60355;BME280;46198;51.464;-0.066;2023-10-19T01:58:50;98539.19;;;14.57;100.00
60355;BME280;46198;51.464;-0.066;2023-10-19T02:01:19;98538.09;;;14.58;100.00
60355;BME280;46198;51.464;-0.066;2023-10-19T02:03:48;98541.41;;;14.55;100.00
60355;BME280;46198;51.464;-0.066;2023-10-19T02:06:21;98535.25;;;14.63;100.00
60355;BME280;46198;51.464;-0.066;2023-10-19T02:08:59;98535.88;;;14.60;100.00
60355;BME280;46198;51.464;-0.066;2023-10-19T02:11:36;98538.59;;;14.60;100.00
60355;BME280;46198;51.464;-0.066;2023-10-19T02:14:09;98523.22;;;14.65;100.00
60355;BME280;46198;51.464;-0.066;2023-10-19T02:16:43;98529.19;;;14.67;100.00
60355;BME280;46198;51.464;-0.066;2023-10-19T02:19:10;98508.94;;;14.68;100.00
60355;BME280;46198;51.464;-0.066;2023-10-19T02:21:39;98522.59;;;14.68;100.00
60355;BME280;46198;51.464;-0.066;2023-10-19T02:24:09;98518.34;;;14.75;100.00
60355;BME280;46198;51.464;-0.066;2023-10-19T02:26:41;98511.56;;;14.73;100.00
60355;BME280;46198;51.464;-0.066;2023-10-19T02:29:08;98510.69;;;14.77;100.00
60355;BME280;46198;51.464;-0.066;2023-10-19T02:31:37;98497.72;;;14.83;100.00
60355;BME280;46198;51.464;-0.066;2023-10-19T02:34:05;98486.59;;;14.79;100.00
60355;BME280;46198;51.464;-0.066;2023-10-19T02:36:34;98498.13;;;14.90;100.00
60355;BME280;46198;51.464;-0.066;2023-10-19T02:39:03;98487.69;;;14.92;100.00
60355;BME280;46198;51.464;-0.066;2023-10-19T02:41:36;98491.03;;;14.89;100.00
60355;BME280;46198;51.464;-0.066;2023-10-19T02:44:07;98489.78;;;14.95;100.00
60355;BME280;46198;51.464;-0.066;2023-10-19T02:46:37;98482.53;;;14.91;100.00
60355;BME280;46198;51.464;-0.066;2023-10-19T02:49:07;98483.22;;;14.96;100.00
60355;BME280;46198;51.464;-0.066;2023-10-19T02:51:40;98488.19;;;14.94;100.00
60355;BME280;46198;51.464;-0.066;2023-10-19T02:54:07;98481.81;;;14.99;100.00
60355;BME280;46198;51.464;-0.066;2023-10-19T02:56:45;98473.19;;;15.05;100.00
60355;BME280;46198;51.464;-0.066;2023-10-19T02:59:17;98476.03;;;15.00;100.00
60355;BME280;46198;51.464;-0.066;2023-10-19T03:01:49;98480.41;;;15.01;100.00
60355;BME280;46198;51.464;-0.066;2023-10-19T03:04:18;98478.66;;;15.05;100.00
60355;BME280;46198;51.464;-0.066;2023-10-19T03:06:47;98465.50;;;15.07;100.00
60355;BME280;46198;51.464;-0.066;2023-10-19T03:09:15;98465.69;;;15.11;100.00
60355;BME280;46198;51.464;-0.066;2023-10-19T03:11:50;98457.47;;;15.11;100.00
60355;BME280;46198;51.464;-0.066;2023-10-19T03:14:20;98457.19;;;15.13;100.00
60355;BME280;46198;51.464;-0.066;2023-10-19T03:16:52;98463.44;;;15.13;100.00
60355;BME280;46198;51.464;-0.066;2023-10-19T03:19:22;98459.00;;;15.17;100.00
60355;BME280;46198;51.464;-0.066;2023-10-19T03:21:52;98463.34;;;15.18;100.00
60355;BME280;46198;51.464;-0.066;2023-10-19T03:24:20;98463.13;;;15.28;100.00
60355;BME280;46198;51.464;-0.066;2023-10-19T03:27:12;98463.41;;;15.27;100.00
60355;BME280;46198;51.464;-0.066;2023-10-19T03:29:46;98458.22;;;15.39;100.00
60355;BME280;46198;51.464;-0.066;2023-10-19T03:32:15;98453.84;;;15.38;100.00
60355;BME280;46198;51.464;-0.066;2023-10-19T03:34:44;98458.22;;;15.39;100.00
60355;BME280;46198;51.464;-0.066;2023-10-19T03:37:15;98461.50;;;15.50;100.00
60355;BME280;46198;51.464;-0.066;2023-10-19T03:39:46;98461.81;;;15.48;100.00
60355;BME280;46198;51.464;-0.066;2023-10-19T03:42:16;98459.06;;;15.48;100.00
60355;BME280;46198;51.464;-0.066;2023-10-19T03:44:45;98457.81;;;15.55;100.00
60355;BME280;46198;51.464;-0.066;2023-10-19T03:47:17;98457.81;;;15.55;100.00
60355;BME280;46198;51.464;-0.066;2023-10-19T03:49:47;98446.94;;;15.63;100.00
60355;BME280;46198;51.464;-0.066;2023-10-19T03:52:17;98443.59;;;15.66;100.00
60355;BME280;46198;51.464;-0.066;2023-10-19T03:54:49;98455.06;;;15.68;100.00
60355;BME280;46198;51.464;-0.066;2023-10-19T03:57:19;98445.41;;;15.71;100.00
60355;BME280;46198;51.464;-0.066;2023-10-19T03:59:50;98441.09;;;15.70;100.00
60355;BME280;46198;51.464;-0.066;2023-10-19T04:02:21;98435.69;;;15.65;100.00
60355;BME280;46198;51.464;-0.066;2023-10-19T04:04:50;98435.69;;;15.65;100.00
60355;BME280;46198;51.464;-0.066;2023-10-19T04:07:19;98434.56;;;15.66;100.00
60355;BME280;46198;51.464;-0.066;2023-10-19T04:09:50;98416.69;;;15.60;100.00
60355;BME280;46198;51.464;-0.066;2023-10-19T04:12:39;98427.19;;;15.66;100.00
60355;BME280;46198;51.464;-0.066;2023-10-19T04:15:10;98428.00;;;15.67;100.00
60355;BME280;46198;51.464;-0.066;2023-10-19T04:17:42;98426.38;;;15.66;100.00
60355;BME280;46198;51.464;-0.066;2023-10-19T04:20:11;98418.16;;;15.66;100.00
60355;BME280;46198;51.464;-0.066;2023-10-19T04:22:56;98419.78;;;15.67;100.00
60355;BME280;46198;51.464;-0.066;2023-10-19T04:25:32;98421.53;;;15.63;100.00
60355;BME280;46198;51.464;-0.066;2023-10-19T04:28:02;98411.09;;;15.65;100.00
60355;BME280;46198;51.464;-0.066;2023-10-19T04:30:32;98416.75;;;15.68;100.00
60355;BME280;46198;51.464;-0.066;2023-10-19T04:33:04;98410.34;;;15.73;100.00
60355;BME280;46198;51.464;-0.066;2023-10-19T04:35:36;98406.91;;;15.67;100.00
60355;BME280;46198;51.464;-0.066;2023-10-19T04:38:05;98405.91;;;15.63;100.00
60355;BME280;46198;51.464;-0.066;2023-10-19T04:40:34;98411.78;;;15.70;100.00
60355;BME280;46198;51.464;-0.066;2023-10-19T04:43:05;98414.31;;;15.67;100.00
60355;BME280;46198;51.464;-0.066;2023-10-19T04:45:33;98405.50;;;15.70;100.00
60355;BME280;46198;51.464;-0.066;2023-10-19T04:48:01;98404.81;;;15.64;100.00
60355;BME280;46198;51.464;-0.066;2023-10-19T04:50:31;98402.56;;;15.66;100.00
60355;BME280;46198;51.464;-0.066;2023-10-19T04:52:59;98401.66;;;15.71;100.00
60355;BME280;46198;51.464;-0.066;2023-10-19T04:55:30;98400.66;;;15.67;100.00
60355;BME280;46198;51.464;-0.066;2023-10-19T04:57:59;98390.22;;;15.69;100.00
60355;BME280;46198;51.464;-0.066;2023-10-19T05:00:28;98395.97;;;15.67;100.00
60355;BME280;46198;51.464;-0.066;2023-10-19T05:03:00;98393.94;;;15.73;100.00
60355;BME280;46198;51.464;-0.066;2023-10-19T05:05:28;98391.38;;;15.77;100.00
60355;BME280;46198;51.464;-0.066;2023-10-19T05:07:57;98404.75;;;15.78;100.00
60355;BME280;46198;51.464;-0.066;2023-10-19T05:10:25;98399.16;;;15.83;100.00
60355;BME280;46198;51.464;-0.066;2023-10-19T05:12:54;98392.88;;;15.83;100.00
60355;BME280;46198;51.464;-0.066;2023-10-19T05:15:22;98379.50;;;15.81;100.00
60355;BME280;46198;51.464;-0.066;2023-10-19T05:17:52;98382.09;;;15.86;100.00
60355;BME280;46198;51.464;-0.066;2023-10-19T05:20:20;98372.75;;;15.87;100.00
60355;BME280;46198;51.464;-0.066;2023-10-19T05:22:48;98388.22;;;15.83;100.00
60355;BME280;46198;51.464;-0.066;2023-10-19T05:25:17;98386.94;;;15.89;100.00
60355;BME280;46198;51.464;-0.066;2023-10-19T05:27:45;98377.59;;;15.90;100.00
60355;BME280;46198;51.464;-0.066;2023-10-19T05:30:14;98391.44;;;15.85;100.00
60355;BME280;46198;51.464;-0.066;2023-10-19T05:32:42;98383.22;;;15.85;100.00
60355;BME280;46198;51.464;-0.066;2023-10-19T05:35:12;98386.56;;;15.82;100.00
60355;BME280;46198;51.464;-0.066;2023-10-19T05:37:45;98379.22;;;15.91;100.00
60355;BME280;46198;51.464;-0.066;2023-10-19T05:40:16;98379.50;;;15.81;100.00
60355;BME280;46198;51.464;-0.066;2023-10-19T05:42:46;98377.09;;;15.80;100.00
60355;BME280;46198;51.464;-0.066;2023-10-19T05:45:14;98379.19;;;15.83;100.00
60355;BME280;46198;51.464;-0.066;2023-10-19T05:47:43;98381.94;;;15.83;100.00
60355;BME280;46198;51.464;-0.066;2023-10-19T05:50:13;98389.81;;;15.84;100.00
60355;BME280;46198;51.464;-0.066;2023-10-19T05:52:42;98395.47;;;15.88;100.00
60355;BME280;46198;51.464;-0.066;2023-10-19T05:55:11;98388.22;;;15.83;100.00
60355;BME280;46198;51.464;-0.066;2023-10-19T05:57:40;98384.97;;;15.81;100.00
60355;BME280;46198;51.464;-0.066;2023-10-19T06:00:09;98376.91;;;15.76;100.00
60355;BME280;46198;51.464;-0.066;2023-10-19T06:02:45;98375.47;;;15.79;100.00
60355;BME280;46198;51.464;-0.066;2023-10-19T06:05:15;98377.25;;;15.83;100.00
60355;BME280;46198;51.464;-0.066;2023-10-19T06:07:44;98379.50;;;15.81;100.00
60355;BME280;46198;51.464;-0.066;2023-10-19T06:10:15;98378.19;;;15.79;100.00
60355;BME280;46198;51.464;-0.066;2023-10-19T06:12:45;98374.03;;;15.81;100.00
60355;BME280;46198;51.464;-0.066;2023-10-19T06:15:15;98379.19;;;15.83;100.00
60355;BME280;46198;51.464;-0.066;2023-10-19T06:17:44;98372.91;;;15.82;100.00
60355;BME280;46198;51.464;-0.066;2023-10-19T06:20:23;98365.94;;;15.76;100.00
60355;BME280;46198;51.464;-0.066;2023-10-19T06:22:55;98376.91;;;15.76;100.00
60355;BME280;46198;51.464;-0.066;2023-10-19T06:25:26;98375.16;;;15.80;100.00
60355;BME280;46198;51.464;-0.066;2023-10-19T06:27:55;98371.25;;;15.72;100.00
60355;BME280;46198;51.464;-0.066;2023-10-19T06:30:25;98376.91;;;15.76;100.00
60355;BME280;46198;51.464;-0.066;2023-10-19T06:32:55;98381.59;;;15.84;100.00
60355;BME280;46198;51.464;-0.066;2023-10-19T06:35:25;98384.84;;;15.86;100.00
60355;BME280;46198;51.464;-0.066;2023-10-19T06:37:53;98386.78;;;15.86;100.00
60355;BME280;46198;51.464;-0.066;2023-10-19T06:40:26;98397.88;;;15.89;100.00
60355;BME280;46198;51.464;-0.066;2023-10-19T06:42:55;98391.78;;;15.92;100.00
60355;BME280;46198;51.464;-0.066;2023-10-19T06:45:25;98386.13;;;15.89;100.00
60355;BME280;46198;51.464;-0.066;2023-10-19T06:47:54;98367.28;;;15.87;100.00
60355;BME280;46198;51.464;-0.066;2023-10-19T06:50:24;98389.25;;;15.96;100.00
60355;BME280;46198;51.464;-0.066;2023-10-19T06:52:54;98380.34;;;15.90;100.00
60355;BME280;46198;51.464;-0.066;2023-10-19T06:55:25;98373.75;;;15.91;100.00
60355;BME280;46198;51.464;-0.066;2023-10-19T06:57:55;98379.56;;;15.99;100.00
60355;BME280;46198;51.464;-0.066;2023-10-19T07:00:24;98389.03;;;15.92;100.00
60355;BME280;46198;51.464;-0.066;2023-10-19T07:02:57;98381.63;;;15.93;100.00
60355;BME280;46198;51.464;-0.066;2023-10-19T07:05:29;98378.91;;;15.93;100.00
60355;BME280;46198;51.464;-0.066;2023-10-19T07:07:58;98380.19;;;15.95;100.00
60355;BME280;46198;51.464;-0.066;2023-10-19T07:10:28;98384.25;;;15.98;100.00
60355;BME280;46198;51.464;-0.066;2023-10-19T07:12:58;98387.31;;;15.97;100.00
60355;BME280;46198;51.464;-0.066;2023-10-19T07:15:27;98376.38;;;15.97;100.00
60355;BME280;46198;51.464;-0.066;2023-10-19T07:17:57;98382.00;;;16.00;100.00
60355;BME280;46198;51.464;-0.066;2023-10-19T07:20:26;98377.69;;;16.08;100.00
60355;BME280;46198;51.464;-0.066;2023-10-19T07:22:58;98369.47;;;16.08;100.00
60355;BME280;46198;51.464;-0.066;2023-10-19T07:25:30;98380.56;;;16.03;100.00
60355;BME280;46198;51.464;-0.066;2023-10-19T07:27:59;98390.38;;;16.04;100.00
60355;BME280;46198;51.464;-0.066;2023-10-19T07:30:28;98383.34;;;16.11;100.00
60355;BME280;46198;51.464;-0.066;2023-10-19T07:32:57;98382.53;;;16.11;100.00
60355;BME280;46198;51.464;-0.066;2023-10-19T07:35:27;98383.03;;;16.13;100.00
60355;BME280;46198;51.464;-0.066;2023-10-19T07:38:03;98380.16;;;16.18;100.00
60355;BME280;46198;51.464;-0.066;2023-10-19T07:40:31;98379.97;;;16.14;100.00
60355;BME280;46198;51.464;-0.066;2023-10-19T07:43:00;98381.41;;;16.12;100.00
60355;BME280;46198;51.464;-0.066;2023-10-19T07:45:28;98385.63;;;16.18;100.00
60355;BME280;46198;51.464;-0.066;2023-10-19T07:47:58;98380.78;;;16.15;100.00
60355;BME280;46198;51.464;-0.066;2023-10-19T07:50:33;98377.22;;;16.14;100.00
60355;BME280;46198;51.464;-0.066;2023-10-19T07:53:03;98374.03;;;16.21;100.00
60355;BME280;46198;51.464;-0.066;2023-10-19T07:55:32;98372.09;;;16.22;100.00
60355;BME280;46198;51.464;-0.066;2023-10-19T07:58:01;98372.91;;;16.22;100.00
60355;BME280;46198;51.464;-0.066;2023-10-19T08:00:30;98369.66;;;16.20;100.00
60355;BME280;46198;51.464;-0.066;2023-10-19T08:03:01;98365.81;;;16.21;100.00
60355;BME280;46198;51.464;-0.066;2023-10-19T08:05:30;98366.97;;;16.29;100.00
60355;BME280;46198;51.464;-0.066;2023-10-19T08:08:08;98367.59;;;16.26;100.00
60355;BME280;46198;51.464;-0.066;2023-10-19T08:10:37;98374.38;;;16.28;100.00
60355;BME280;46198;51.464;-0.066;2023-10-19T08:13:06;98363.59;;;16.23;100.00
60355;BME280;46198;51.464;-0.066;2023-10-19T08:15:34;98364.53;;;16.27;100.00
60355;BME280;46198;51.464;-0.066;2023-10-19T08:18:04;98369.38;;;16.30;100.00
60355;BME280;46198;51.464;-0.066;2023-10-19T08:20:33;98371.63;;;16.28;100.00
60355;BME280;46198;51.464;-0.066;2023-10-19T08:23:04;98361.16;;;16.30;100.00
60355;BME280;46198;51.464;-0.066;2023-10-19T08:25:34;98371.34;;;16.38;100.00
60355;BME280;46198;51.464;-0.066;2023-10-19T08:28:25;98367.50;;;16.39;100.00
60355;BME280;46198;51.464;-0.066;2023-10-19T08:30:54;98363.13;;;16.38;100.00
60355;BME280;46198;51.464;-0.066;2023-10-19T08:33:28;98366.38;;;16.49;100.00
60355;BME280;46198;51.464;-0.066;2023-10-19T08:36:00;98365.56;;;16.49;100.00
60355;BME280;46198;51.464;-0.066;2023-10-19T08:38:28;98369.25;;;16.53;100.00
60355;BME280;46198;51.464;-0.066;2023-10-19T08:40:58;98363.97;;;16.56;100.00
60355;BME280;46198;51.464;-0.066;2023-10-19T08:43:27;98372.19;;;16.56;100.00
60355;BME280;46198;51.464;-0.066;2023-10-19T08:45:55;98363.19;;;16.56;100.00
60355;BME280;46198;51.464;-0.066;2023-10-19T08:48:24;98367.81;;;16.55;100.00
60355;BME280;46198;51.464;-0.066;2023-10-19T08:50:52;98362.19;;;16.52;100.00
60355;BME280;46198;51.464;-0.066;2023-10-19T08:53:24;98376.38;;;16.54;100.00
60355;BME280;46198;51.464;-0.066;2023-10-19T08:55:52;98372.50;;;16.55;100.00
60355;BME280;46198;51.464;-0.066;2023-10-19T08:58:23;98371.41;;;16.56;100.00
60355;BME280;46198;51.464;-0.066;2023-10-19T09:00:53;98368.16;;;16.62;100.00
60355;BME280;46198;51.464;-0.066;2023-10-19T09:03:23;98368.97;;;16.63;100.00
60355;BME280;46198;51.464;-0.066;2023-10-19T09:05:53;98366.06;;;16.68;100.00
60355;BME280;46198;51.464;-0.066;2023-10-19T09:08:24;98370.09;;;16.62;100.00
60355;BME280;46198;51.464;-0.066;2023-10-19T09:10:52;98375.09;;;16.60;100.00
60355;BME280;46198;51.464;-0.066;2023-10-19T09:13:24;98365.72;;;16.61;100.00
60355;BME280;46198;51.464;-0.066;2023-10-19T09:15:52;98374.28;;;16.68;100.00
60355;BME280;46198;51.464;-0.066;2023-10-19T09:18:24;98370.28;;;16.74;100.00
60355;BME280;46198;51.464;-0.066;2023-10-19T09:20:58;98367.38;;;16.71;100.00
60355;BME280;46198;51.464;-0.066;2023-10-19T09:23:35;98372.41;;;16.77;100.00
60355;BME280;46198;51.464;-0.066;2023-10-19T09:26:05;98364.34;;;16.81;100.00
60355;BME280;46198;51.464;-0.066;2023-10-19T09:28:37;98369.16;;;16.75;100.00
60355;BME280;46198;51.464;-0.066;2023-10-19T09:31:05;98370.75;;;16.68;100.00
60355;BME280;46198;51.464;-0.066;2023-10-19T09:33:40;98370.41;;;16.69;100.00
60355;BME280;46198;51.464;-0.066;2023-10-19T09:36:11;98368.50;;;16.70;100.00
60355;BME280;46198;51.464;-0.066;2023-10-19T09:38:44;98361.88;;;16.62;100.00
60355;BME280;46198;51.464;-0.066;2023-10-19T09:41:17;98371.03;;;16.49;100.00
60355;BME280;46198;51.464;-0.066;2023-10-19T09:43:50;98367.38;;;16.62;100.00
60355;BME280;46198;51.464;-0.066;2023-10-19T09:46:24;98360.94;;;16.67;100.00
60355;BME280;46198;51.464;-0.066;2023-10-19T09:49:06;98363.50;;;16.72;100.00
60355;BME280;46198;51.464;-0.066;2023-10-19T09:51:41;98366.41;;;16.67;100.00
60355;BME280;46198;51.464;-0.066;2023-10-19T09:54:36;98356.06;;;16.63;100.00
60355;BME280;46198;51.464;-0.066;2023-10-19T09:57:12;98372.06;;;16.70;100.00
60355;BME280;46198;51.464;-0.066;2023-10-19T09:59:51;98358.34;;;16.70;100.00
60355;BME280;46198;51.464;-0.066;2023-10-19T10:02:27;98354.31;;;16.76;100.00
60355;BME280;46198;51.464;-0.066;2023-10-19T10:04:56;98363.84;;;16.70;100.00
60355;BME280;46198;51.464;-0.066;2023-10-19T10:07:27;98354.63;;;16.66;100.00
60355;BME280;46198;51.464;-0.066;2023-10-19T10:10:08;98363.50;;;16.72;100.00
60355;BME280;46198;51.464;-0.066;2023-10-19T10:12:39;98362.53;;;16.76;100.00
60355;BME280;46198;51.464;-0.066;2023-10-19T10:15:09;98363.41;;;16.86;100.00
60355;BME280;46198;51.464;-0.066;2023-10-19T10:17:39;98366.28;;;16.80;100.00
60355;BME280;46198;51.464;-0.066;2023-10-19T10:20:29;98364.03;;;16.91;100.00
60355;BME280;46198;51.464;-0.066;2023-10-19T10:23:17;98370.81;;;16.94;100.00
60355;BME280;46198;51.464;-0.066;2023-10-19T10:25:51;98361.78;;;16.84;100.00
60355;BME280;46198;51.464;-0.066;2023-10-19T10:28:26;98370.97;;;16.89;100.00
60355;BME280;46198;51.464;-0.066;2023-10-19T10:31:15;98368.53;;;16.96;100.00
60355;BME280;46198;51.464;-0.066;2023-10-19T10:33:53;98369.69;;;17.03;100.00
60355;BME280;46198;51.464;-0.066;2023-10-19T10:36:23;98369.66;;;17.12;100.00
60355;BME280;46198;51.464;-0.066;2023-10-19T10:39:01;98362.75;;;17.06;100.00
60355;BME280;46198;51.464;-0.066;2023-10-19T10:41:43;98359.69;;;17.08;100.00
60355;BME280;46198;51.464;-0.066;2023-10-19T10:44:15;98363.06;;;17.13;100.00
60355;BME280;46198;51.464;-0.066;2023-10-19T10:46:50;98362.25;;;17.21;100.00
60355;BME280;46198;51.464;-0.066;2023-10-19T10:49:21;98359.53;;;17.21;100.00
60355;BME280;46198;51.464;-0.066;2023-10-19T10:51:50;98356.44;;;17.23;100.00
60355;BME280;46198;51.464;-0.066;2023-10-19T10:54:23;98357.22;;;17.23;100.00
60355;BME280;46198;51.464;-0.066;2023-10-19T10:56:51;98353.72;;;17.14;100.00
60355;BME280;46198;51.464;-0.066;2023-10-19T10:59:20;98349.19;;;17.18;100.00
60355;BME280;46198;51.464;-0.066;2023-10-19T11:01:49;98351.13;;;17.09;100.00
60355;BME280;46198;51.464;-0.066;2023-10-19T11:04:18;98348.72;;;17.16;100.00
60355;BME280;46198;51.464;-0.066;2023-10-19T11:06:50;98349.19;;;17.18;100.00
60355;BME280;46198;51.464;-0.066;2023-10-19T11:09:19;98352.25;;;17.17;100.00
60355;BME280;46198;51.464;-0.066;2023-10-19T11:11:54;98350.00;;;17.10;100.00
60355;BME280;46198;51.464;-0.066;2023-10-19T11:14:23;98351.78;;;17.06;100.00
60355;BME280;46198;51.464;-0.066;2023-10-19T11:16:54;98337.75;;;17.16;100.00
60355;BME280;46198;51.464;-0.066;2023-10-19T11:19:37;98339.84;;;17.19;100.00
60355;BME280;46198;51.464;-0.066;2023-10-19T11:22:11;98337.59;;;17.21;100.00
60355;BME280;46198;51.464;-0.066;2023-10-19T11:24:40;98328.53;;;17.30;100.00
60355;BME280;46198;51.464;-0.066;2023-10-19T11:27:08;98331.59;;;17.28;100.00
60355;BME280;46198;51.464;-0.066;2023-10-19T11:29:39;98335.78;;;17.25;100.00
60355;BME280;46198;51.464;-0.066;2023-10-19T11:32:10;98335.44;;;17.36;100.00
60355;BME280;46198;51.464;-0.066;2023-10-19T11:34:41;98337.50;;;17.56;100.00
60355;BME280;46198;51.464;-0.066;2023-10-19T11:37:11;98331.16;;;17.73;100.00
60355;BME280;46198;51.464;-0.066;2023-10-19T11:39:40;98333.09;;;17.72;100.00
60355;BME280;46198;51.464;-0.066;2023-10-19T11:42:14;98332.63;;;17.70;100.00
60355;BME280;46198;51.464;-0.066;2023-10-19T11:44:46;98325.50;;;17.69;100.00
60355;BME280;46198;51.464;-0.066;2023-10-19T11:47:25;98321.81;;;17.65;100.00
60355;BME280;46198;51.464;-0.066;2023-10-19T11:49:59;98318.41;;;17.68;100.00
60355;BME280;46198;51.464;-0.066;2023-10-19T11:52:28;98318.09;;;17.61;100.00
60355;BME280;46198;51.464;-0.066;2023-10-19T11:54:59;98322.34;;;17.50;100.00
60355;BME280;46198;51.464;-0.066;2023-10-19T11:57:35;98319.56;;;17.59;100.00
60355;BME280;46198;51.464;-0.066;2023-10-19T12:00:09;98319.09;;;17.57;100.00
60355;BME280;46198;51.464;-0.066;2023-10-19T12:02:42;98311.50;;;17.62;100.00
60355;BME280;46198;51.464;-0.066;2023-10-19T12:05:17;98306.94;;;17.66;100.00
60355;BME280;46198;51.464;-0.066;2023-10-19T12:07:52;98304.22;;;17.66;100.00
60355;BME280;46198;51.464;-0.066;2023-10-19T12:10:26;98316.81;;;17.67;100.00
60355;BME280;46198;51.464;-0.066;2023-10-19T12:13:04;98297.25;;;17.69;100.00
60355;BME280;46198;51.464;-0.066;2023-10-19T12:15:37;98309.41;;;17.59;100.00
60355;BME280;46198;51.464;-0.066;2023-10-19T12:18:09;98305.38;;;17.57;100.00
60355;BME280;46198;51.464;-0.066;2023-10-19T12:20:56;98301.38;;;17.54;100.00
60355;BME280;46198;51.464;-0.066;2023-10-19T12:23:27;98297.03;;;17.44;100.00
60355;BME280;46198;51.464;-0.066;2023-10-19T12:26:21;98296.22;;;17.44;100.00
60355;BME280;46198;51.464;-0.066;2023-10-19T12:29:00;98295.28;;;17.40;100.00
60355;BME280;46198;51.464;-0.066;2023-10-19T12:31:37;98300.75;;;17.40;100.00
60355;BME280;46198;51.464;-0.066;2023-10-19T12:34:11;98307.22;;;17.35;100.00
60355;BME280;46198;51.464;-0.066;2023-10-19T12:36:40;98299.66;;;17.32;100.00
60355;BME280;46198;51.464;-0.066;2023-10-19T12:39:08;98297.06;;;17.36;100.00
60355;BME280;46198;51.464;-0.066;2023-10-19T12:41:45;98295.72;;;17.42;100.00
60355;BME280;46198;51.464;-0.066;2023-10-19T12:44:20;98289.44;;;17.41;100.00
60355;BME280;46198;51.464;-0.066;2023-10-19T12:46:54;98286.56;;;17.38;100.00
60355;BME280;46198;51.464;-0.066;2023-10-19T12:49:38;98285.25;;;17.44;100.00
60355;BME280;46198;51.464;-0.066;2023-10-19T12:52:23;98277.38;;;17.34;100.00
60355;BME280;46198;51.464;-0.066;2023-10-19T12:55:05;98277.41;;;17.25;100.00
60355;BME280;46198;51.464;-0.066;2023-10-19T12:57:38;98278.53;;;17.24;100.00
60355;BME280;46198;51.464;-0.066;2023-10-19T13:00:14;98276.00;;;17.10;100.00
60355;BME280;46198;51.464;-0.066;2023-10-19T13:02:59;98262.88;;;17.24;100.00
60355;BME280;46198;51.464;-0.066;2023-10-19T13:05:32;98256.81;;;17.57;100.00